Time;durP1;ratioP1;P1;durP2;ratioP2;P2;SDS_P1;SDS_P2;PMS_P1;PMS_P2;Temp;Humidity;BMP_temperature;BMP_pressure;BME280_temperature;BME280_humidity;BME280_pressure;Samples;Min_cycle;Max_cycle;Signal;HPM_P1;HPM_P2
2023/01/13 00:00:30;;;;;;;5.50;5.10;;;;;;;4.38;74.61;95260.63;5079511;28;20200;-74
2023/01/13 00:02:57;;;;;;;5.10;4.70;;;;;;;4.37;74.61;95260.94;5096770;28;20501;-74
2023/01/13 00:05:24;;;;;;;5.85;5.35;;;;;;;4.37;74.59;95263.69;5097014;28;20636;-74
2023/01/13 00:07:52;;;;;;;5.60;5.20;;;;;;;4.34;74.36;95265.91;5096889;28;20208;-74
2023/01/13 00:10:19;;;;;;;5.57;5.18;;;;;;;4.35;74.75;95264.78;5096831;28;20591;-73
2023/01/13 00:12:50;;;;;;;5.97;5.50;;;;;;;4.37;74.36;95263.69;5096710;28;20632;-73
2023/01/13 00:15:18;;;;;;;6.13;5.63;;;;;;;4.38;74.55;95268.03;5079251;28;20315;-74
2023/01/13 00:17:46;;;;;;;6.10;5.60;;;;;;;4.37;74.61;95263.69;5078825;28;20204;-74
2023/01/13 00:20:15;;;;;;;6.10;5.70;;;;;;;4.39;73.98;95269.63;5079202;28;20204;-74
2023/01/13 00:22:43;;;;;;;6.28;5.85;;;;;;;4.40;74.18;95274.00;5078792;28;20207;-74
2023/01/13 00:25:11;;;;;;;6.10;5.70;;;;;;;4.36;74.27;95254.69;5078567;28;20200;-74
2023/01/13 00:27:39;;;;;;;5.75;5.35;;;;;;;4.38;74.49;95265.28;5078742;28;20196;-74
2023/01/13 00:30:09;;;;;;;5.82;5.43;;;;;;;4.35;74.36;95262.03;5079162;28;20609;-74
2023/01/13 00:32:38;;;;;;;5.75;5.35;;;;;;;4.35;74.26;95256.59;5078417;28;20192;-74
2023/01/13 00:35:06;;;;;;;6.47;5.97;;;;;;;4.39;74.40;95270.44;5078799;28;20224;-74
2023/01/13 00:37:36;;;;;;;6.30;5.80;;;;;;;4.35;74.28;95262.03;5078972;28;20207;-73
2023/01/13 00:40:05;;;;;;;6.22;5.80;;;;;;;4.35;74.04;95262.03;5096775;28;20180;-73
2023/01/13 00:45:20;;;;;;;5.50;5.10;;;;;;;4.31;73.77;95263.78;5078470;28;20193;-74
2023/01/13 00:47:50;;;;;;;5.93;5.43;;;;;;;4.31;74.07;95266.50;5078346;28;20266;-74
2023/01/13 00:50:17;;;;;;;5.60;5.20;;;;;;;4.35;73.89;95263.97;5078214;28;20287;-74
2023/01/13 00:52:45;;;;;;;5.97;5.57;;;;;;;4.35;74.06;95264.78;5078532;28;20203;-74
2023/01/13 00:55:13;;;;;;;5.93;5.53;;;;;;;4.37;73.94;95256.28;5078258;28;20301;-74
2023/01/13 00:57:41;;;;;;;6.18;5.68;;;;;;;4.39;73.90;95258.69;5078177;28;20204;-74
2023/01/13 01:00:11;;;;;;;5.88;5.47;;;;;;;4.33;74.13;95253.38;5078345;28;20237;-74
2023/01/13 01:02:44;;;;;;;5.97;5.57;;;;;;;4.35;74.16;95264.78;5077913;28;20204;-74
2023/01/13 01:05:12;;;;;;;6.00;5.60;;;;;;;4.38;74.08;95259.81;5078358;28;20290;-74
2023/01/13 01:07:38;;;;;;;6.18;5.68;;;;;;;4.42;73.76;95249.91;5096426;28;20212;-74
2023/01/13 01:10:09;;;;;;;5.88;5.47;;;;;;;4.42;73.46;95256.16;5078579;28;20211;-74
2023/01/13 01:12:37;;;;;;;6.20;5.70;;;;;;;4.44;73.85;95248.47;5096408;28;20290;-74
2023/01/13 01:15:09;;;;;;;6.03;5.63;;;;;;;4.42;73.50;95247.97;5095512;28;20273;-74
2023/01/13 01:17:37;;;;;;;5.75;5.35;;;;;;;4.41;73.41;95249.09;5078826;28;20639;-74
2023/01/13 01:20:08;;;;;;;6.45;5.95;;;;;;;4.44;73.67;95244.94;5078198;28;20647;-74
2023/01/13 01:22:36;;;;;;;5.80;5.40;;;;;;;4.44;73.16;95240.28;5078087;28;20199;-74
2023/01/13 01:25:03;;;;;;;6.03;5.60;;;;;;;4.43;73.36;95243.31;5077510;28;20636;-74
2023/01/13 01:27:31;;;;;;;6.13;5.70;;;;;;;4.42;73.28;95238.97;5077880;28;20203;-74
2023/01/13 01:29:58;;;;;;;5.78;5.38;;;;;;;4.40;73.48;95235.75;5078159;28;20632;-74
2023/01/13 01:32:26;;;;;;;6.05;5.65;;;;;;;4.37;73.33;95236.38;5077714;28;20196;-74
2023/01/13 01:34:54;;;;;;;6.40;5.90;;;;;;;4.34;73.27;95229.59;5077782;28;20220;-74
2023/01/13 01:37:27;;;;;;;6.15;5.75;;;;;;;4.28;73.77;95237.09;5077633;28;20212;-74
2023/01/13 01:39:55;;;;;;;6.20;5.78;;;;;;;4.30;73.67;95237.59;5077384;28;20199;-74
2023/01/13 01:45:15;;;;;;;5.80;5.40;;;;;;;4.33;73.73;95233.44;5077829;28;20192;-74
2023/01/13 01:47:42;;;;;;;6.30;5.80;;;;;;;4.30;73.78;95229.41;5077592;28;20307;-74
2023/01/13 01:50:10;;;;;;;6.60;6.10;;;;;;;4.35;74.11;95221.09;5077748;28;20204;-73
2023/01/13 01:52:41;;;;;;;6.30;5.80;;;;;;;4.35;73.79;95226.53;5077191;28;20200;-73
2023/01/13 01:55:10;;;;;;;6.75;6.25;;;;;;;4.32;73.54;95218.16;5076782;28;20235;-75
2023/01/13 01:57:41;;;;;;;6.18;5.68;;;;;;;4.33;73.65;95219.81;5077435;28;20188;-74
2023/01/13 02:00:09;;;;;;;6.35;5.85;;;;;;;4.34;73.37;95226.88;5077303;28;20204;-74
2023/01/13 02:02:37;;;;;;;6.35;5.85;;;;;;;4.33;74.05;95228.00;5077570;28;20285;-74
2023/01/13 02:05:04;;;;;;;6.28;5.78;;;;;;;4.34;73.86;95229.59;5077525;28;20212;-74
2023/01/13 02:07:32;;;;;;;6.20;5.70;;;;;;;4.36;73.82;95221.91;5077512;28;20212;-74
2023/01/13 02:10:04;;;;;;;7.20;6.60;;;;;;;4.34;73.66;95226.88;5077542;28;20211;-74
2023/01/13 02:12:33;;;;;;;6.35;5.85;;;;;;;4.34;73.73;95222.22;5077415;28;20196;-73
2023/01/13 02:15:04;;;;;;;6.53;6.03;;;;;;;4.38;73.59;95224.31;5095097;28;20212;-74
2023/01/13 02:17:42;;;;;;;5.47;5.07;;;;;;;4.37;73.62;95220.00;5077465;28;20195;-74
2023/01/13 02:20:45;;;;;;;5.50;5.10;;;;;;;4.36;73.36;95227.38;5077359;28;20204;-74
2023/01/13 02:27:05;;;;;;;5.43;5.03;;;;;;;4.34;73.87;95205.81;5069195;28;20609;-73
2023/01/13 02:32:40;;;;;;;6.05;5.55;;;;;;;4.34;73.44;95224.13;5080865;28;20207;-73
2023/01/13 02:35:12;;;;;;;6.25;5.75;;;;;;;4.32;73.90;95215.44;5080966;28;20224;-73
2023/01/13 02:37:42;;;;;;;5.85;5.45;;;;;;;4.33;73.90;95226.06;5081272;28;20200;-73
2023/01/13 02:40:14;;;;;;;5.65;5.22;;;;;;;4.35;73.68;95221.09;5081001;28;20201;-73
2023/01/13 02:45:39;;;;;;;5.90;5.50;;;;;;;4.30;73.84;95221.22;5080694;28;20290;-73
2023/01/13 02:48:09;;;;;;;5.80;5.40;;;;;;;4.28;73.88;95222.63;5081041;28;20274;-73
2023/01/13 02:50:40;;;;;;;5.30;4.90;;;;;;;4.27;73.60;95221.81;5098732;28;20207;-73
2023/01/13 02:53:11;;;;;;;4.80;4.40;;;;;;;4.31;73.57;95227.47;5098573;28;20209;-73
2023/01/13 02:55:45;;;;;;;5.43;4.97;;;;;;;4.33;73.75;95219.81;5080995;28;20240;-73
2023/01/13 02:58:17;;;;;;;5.25;4.85;;;;;;;4.34;73.81;95214.00;5098513;28;20229;-74
2023/01/13 03:00:48;;;;;;;5.47;5.07;;;;;;;4.34;73.89;95213.22;5080620;28;20196;-73
2023/01/13 03:03:16;;;;;;;5.22;4.82;;;;;;;4.34;73.63;95224.94;5081085;28;20200;-73
2023/01/13 03:05:45;;;;;;;4.90;4.50;;;;;;;4.31;73.95;95219.28;5080820;28;20204;-73
2023/01/13 03:08:32;;;;;;;4.93;4.63;;;;;;;4.27;73.65;95224.56;5080284;28;20192;-74
2023/01/13 03:11:04;;;;;;;5.80;5.40;;;;;;;4.30;73.83;95221.22;5080301;28;20546;-73
2023/01/13 03:14:18;;;;;;;5.22;4.82;;;;;;;4.35;73.85;95212.88;5080133;28;20203;-73
2023/01/13 03:17:00;;;;;;;5.45;5.05;;;;;;;4.35;73.77;95214.81;5069206;28;20239;-73
2023/01/13 03:19:37;;;;;;;4.80;4.40;;;;;;;4.35;73.58;95212.09;5080681;28;20210;-74
2023/01/13 03:22:12;;;;;;;4.63;4.32;;;;;;;4.34;73.63;95221.41;5080180;28;20206;-74
2023/01/13 03:24:42;;;;;;;4.88;4.57;;;;;;;4.34;73.48;95216.75;5079936;28;20517;-74
2023/01/13 03:27:15;;;;;;;4.53;4.22;;;;;;;4.34;73.86;95221.41;5080454;28;20203;-73
2023/01/13 03:29:46;;;;;;;5.20;4.80;;;;;;;4.33;73.52;95215.13;5080203;28;20192;-74
2023/01/13 03:32:17;;;;;;;4.55;4.25;;;;;;;4.32;73.25;95219.00;5080005;28;20220;-73
2023/01/13 03:34:47;;;;;;;4.60;4.30;;;;;;;4.35;73.53;95221.09;5079808;28;20195;-74
2023/01/13 03:37:17;;;;;;;4.90;4.50;;;;;;;4.35;73.62;95220.28;5079617;28;20193;-73
2023/01/13 03:39:48;;;;;;;5.13;4.75;;;;;;;4.38;73.67;95224.31;5080347;28;20205;-74
2023/01/13 03:42:17;;;;;;;4.43;4.10;;;;;;;4.37;73.44;95225.44;5079851;28;20211;-74
2023/01/13 03:44:48;;;;;;;4.20;3.90;;;;;;;4.36;73.21;95221.91;5079537;28;20546;-74
2023/01/13 03:47:21;;;;;;;4.75;4.43;;;;;;;4.38;73.41;95224.31;5079416;28;20200;-73
2023/01/13 03:49:53;;;;;;;4.28;3.97;;;;;;;4.37;73.24;95217.25;5079646;28;20208;-73
2023/01/13 03:52:25;;;;;;;4.75;4.45;;;;;;;4.37;73.33;95228.19;5079473;28;20207;-74
2023/01/13 03:54:56;;;;;;;4.47;4.18;;;;;;;4.35;73.53;95225.75;5079830;28;20201;-75
2023/01/13 03:57:28;;;;;;;5.10;4.80;;;;;;;4.39;73.45;95228.66;5079971;28;20269;-74
2023/01/13 03:59:59;;;;;;;5.00;4.70;;;;;;;4.42;73.33;95228.03;5097344;28;20189;-74
2023/01/13 04:02:37;;;;;;;5.43;5.13;;;;;;;4.40;73.81;95231.09;5079571;28;20204;-74
2023/01/13 04:05:08;;;;;;;4.97;4.68;;;;;;;4.41;73.37;95232.72;5097205;28;20223;-73
2023/01/13 04:07:49;;;;;;;6.30;5.90;;;;;;;4.38;73.52;95229.78;5080038;28;20299;-76
2023/01/13 04:10:20;;;;;;;5.53;5.15;;;;;;;4.33;73.69;95228.78;5097213;28;20189;-75
2023/01/13 04:13:03;;;;;;;4.50;4.20;;;;;;;4.33;73.62;95237.00;5080358;28;20219;-76
2023/01/13 04:15:36;;;;;;;4.30;4.00;;;;;;;4.33;73.47;95233.44;5071474;28;20227;-75
2023/01/13 04:18:22;;;;;;;4.75;4.45;;;;;;;4.34;73.56;95243.25;5096747;28;20653;-75
2023/01/13 04:20:52;;;;;;;4.57;4.28;;;;;;;4.34;73.74;95245.97;5077453;28;20203;-75
2023/01/13 04:23:21;;;;;;;4.13;3.88;;;;;;;4.32;73.96;95243.56;5079373;28;20204;-75
2023/01/13 04:25:51;;;;;;;4.45;4.15;;;;;;;4.28;73.78;95242.53;5079273;28;20538;-75
2023/01/13 04:28:19;;;;;;;4.43;4.18;;;;;;;4.25;74.28;95242.38;5078940;28;20612;-75
2023/01/13 04:30:47;;;;;;;4.90;4.55;;;;;;;4.24;74.12;95243.47;5078679;28;20196;-75
2023/01/13 04:33:18;;;;;;;4.88;4.57;;;;;;;4.26;74.48;95247.53;5078521;28;20541;-75
2023/01/13 04:35:51;;;;;;;4.75;4.45;;;;;;;4.25;74.19;95247.84;5078529;28;20223;-75
2023/01/13 04:38:20;;;;;;;4.72;4.43;;;;;;;4.28;74.15;95250.75;5096481;28;20283;-75
2023/01/13 04:40:49;;;;;;;5.10;4.75;;;;;;;4.25;74.32;95248.66;5096583;28;20204;-75
2023/01/13 04:43:17;;;;;;;4.97;4.68;;;;;;;4.24;74.28;95249.75;5078868;28;20265;-75
2023/01/13 04:45:45;;;;;;;5.75;5.35;;;;;;;4.23;74.25;95250.06;5078803;28;20193;-75
2023/01/13 04:48:13;;;;;;;5.45;5.05;;;;;;;4.25;74.43;95245.13;5078625;28;20203;-75
2023/01/13 04:50:41;;;;;;;5.78;5.28;;;;;;;4.26;74.05;95249.44;5095489;28;20197;-75
2023/01/13 04:53:10;;;;;;;5.60;5.20;;;;;;;4.23;74.05;95250.88;5095981;28;20200;-75
2023/01/13 04:55:38;;;;;;;6.45;5.95;;;;;;;4.24;74.42;95251.66;5078400;28;20232;-75
2023/01/13 04:58:10;;;;;;;6.43;5.93;;;;;;;4.26;74.49;95253.00;5061734;28;20608;-75
2023/01/13 05:00:40;;;;;;;6.47;5.97;;;;;;;4.26;74.13;95255.72;5078318;28;20207;-75
2023/01/13 05:03:08;;;;;;;6.28;5.80;;;;;;;4.27;74.33;95254.59;5096455;28;20191;-72
2023/01/13 05:05:37;;;;;;;6.30;5.90;;;;;;;4.25;74.28;95254.13;5077731;28;20720;-75
2023/01/13 05:08:05;;;;;;;7.53;6.93;;;;;;;4.26;74.23;95255.72;5078275;28;20254;-74
2023/01/13 05:10:34;;;;;;;7.22;6.63;;;;;;;4.24;74.56;95257.13;5095953;28;20199;-74
2023/01/13 05:18:46;;;;;;;6.57;6.15;;;;;;;4.20;74.51;95267.06;5060160;28;20209;-74
2023/01/13 05:26:45;;;;;;;6.90;6.40;;;;;;;4.13;75.09;95258.47;5077456;28;20196;-74
2023/01/13 05:29:13;;;;;;;7.28;6.78;;;;;;;4.13;75.50;95262.00;5095705;28;20200;-74
2023/01/13 05:31:40;;;;;;;6.90;6.40;;;;;;;4.15;75.07;95261.72;5077947;28;20204;-75
2023/01/13 05:34:07;;;;;;;6.30;5.90;;;;;;;4.12;75.46;95267.78;5095506;28;20196;-75
2023/01/13 05:36:35;;;;;;;6.43;5.90;;;;;;;4.17;75.42;95265.75;5077453;28;20239;-74
2023/01/13 05:39:04;;;;;;;6.47;6.05;;;;;;;4.20;75.17;95265.13;5077655;28;20202;-74
2023/01/13 05:44:19;;;;;;;7.43;6.82;;;;;;;4.22;74.89;95265.66;5077342;28;20253;-75
2023/01/13 05:46:47;;;;;;;7.05;6.45;;;;;;;4.22;74.84;95262.09;5077478;28;20196;-74
2023/01/13 05:49:15;;;;;;;7.05;6.45;;;;;;;4.22;74.87;95267.56;5078119;28;20203;-74
2023/01/13 05:51:43;;;;;;;7.35;6.75;;;;;;;4.22;74.92;95276.56;5078086;28;20201;-75
2023/01/13 05:54:12;;;;;;;7.60;6.90;;;;;;;4.21;74.78;95272.22;5077881;28;20291;-75
2023/01/13 05:56:40;;;;;;;8.18;7.38;;;;;;;4.22;75.05;95276.56;5076937;28;20238;-75
2023/01/13 05:59:08;;;;;;;9.07;8.27;;;;;;;4.22;75.18;95273.84;5077765;28;20207;-75
2023/01/13 06:01:38;;;;;;;8.38;7.57;;;;;;;4.24;74.95;95276.25;5077200;28;20200;-75
2023/01/13 06:04:06;;;;;;;8.52;7.72;;;;;;;4.22;74.89;95273.84;5077147;28;20188;-75
2023/01/13 06:06:34;;;;;;;8.43;7.72;;;;;;;4.23;75.28;95282.81;5077546;28;20609;-75
2023/01/13 06:09:02;;;;;;;8.20;7.55;;;;;;;4.24;74.84;95278.97;5077780;28;20269;-74
2023/01/13 06:11:30;;;;;;;8.70;7.95;;;;;;;4.26;75.31;95277.56;5077088;28;20193;-74
2023/01/13 06:13:58;;;;;;;9.25;8.45;;;;;;;4.28;75.21;95288.16;5077213;28;20240;-75
2023/01/13 06:16:26;;;;;;;9.00;8.27;;;;;;;4.27;75.00;95290.09;5077320;28;20220;-75
2023/01/13 06:18:58;;;;;;;8.95;8.25;;;;;;;4.25;74.93;95289.59;5077347;28;20211;-75
2023/01/13 06:21:28;;;;;;;9.27;8.48;;;;;;;4.28;74.89;95290.91;5077545;28;20212;-75
2023/01/13 06:23:59;;;;;;;8.88;8.18;;;;;;;4.29;75.21;95295.25;5077490;28;20200;-75
2023/01/13 06:26:28;;;;;;;8.77;8.07;;;;;;;4.35;74.76;95300.28;5077197;28;20204;-75
2023/01/13 06:28:56;;;;;;;8.57;7.90;;;;;;;4.33;74.75;95299.00;5077337;28;20208;-75
2023/01/13 06:31:24;;;;;;;8.77;8.07;;;;;;;4.33;75.07;95293.53;5076833;28;20605;-75
2023/01/13 06:33:55;;;;;;;8.98;8.18;;;;;;;4.34;74.69;95297.88;5094974;28;20205;-75
2023/01/13 06:36:27;;;;;;;8.75;8.05;;;;;;;4.31;75.21;95303.94;5094683;28;20212;-75
2023/01/13 06:38:58;;;;;;;8.85;8.15;;;;;;;4.31;75.06;95298.47;5077763;28;20233;-74
2023/01/13 06:44:10;;;;;;;9.32;8.57;;;;;;;4.35;74.95;95299.47;5093929;28;20205;-74
2023/01/13 06:46:38;;;;;;;9.57;8.77;;;;;;;4.34;74.93;95293.22;5094724;28;20184;-74
2023/01/13 06:49:10;;;;;;;9.75;8.85;;;;;;;4.35;74.88;95291.28;5094656;28;20192;-74
2023/01/13 06:51:38;;;;;;;9.27;8.48;;;;;;;4.34;75.20;95295.94;5094373;28;20207;-74
2023/01/13 06:54:06;;;;;;;8.68;7.97;;;;;;;4.39;75.15;95296.94;5094757;28;20193;-76
2023/01/13 06:56:35;;;;;;;8.13;7.50;;;;;;;4.40;74.88;95301.31;5094608;28;20542;-75
2023/01/13 06:59:01;;;;;;;8.65;7.93;;;;;;;4.32;75.07;95295.47;5076643;28;20212;-74
2023/01/13 07:01:29;;;;;;;8.02;7.40;;;;;;;4.33;74.89;95299.00;5076891;28;20201;-74
2023/01/13 07:04:01;;;;;;;7.60;7.00;;;;;;;4.32;74.85;95297.34;5094537;28;20192;-74
2023/01/13 07:06:32;;;;;;;7.60;7.00;;;;;;;4.33;74.91;95297.06;5076795;28;20208;-74
2023/01/13 07:09:00;;;;;;;8.15;7.45;;;;;;;4.40;75.00;95293.91;5094756;28;20192;-74
2023/01/13 07:11:27;;;;;;;7.95;7.35;;;;;;;4.44;74.85;95292.19;5094573;28;20201;-75
2023/01/13 07:16:43;;;;;;;7.40;6.75;;;;;;;4.51;75.11;95289.03;5097868;28;20289;-75
2023/01/13 07:19:11;;;;;;;7.38;6.82;;;;;;;4.53;74.66;95293.03;5097809;28;20232;-75
2023/01/13 07:21:41;;;;;;;7.20;6.53;;;;;;;4.52;74.43;95291.44;5080430;28;20215;-74
2023/01/13 07:24:09;;;;;;;6.85;6.35;;;;;;;4.56;74.56;95288.91;5080420;28;20597;-75
2023/01/13 07:26:37;;;;;;;7.28;6.63;;;;;;;4.56;74.13;95289.69;5080193;28;20200;-75
2023/01/13 07:29:05;;;;;;;6.47;5.97;;;;;;;4.56;73.93;95291.63;5080119;28;20193;-75
2023/01/13 07:31:33;;;;;;;6.65;6.18;;;;;;;4.56;74.14;95289.69;5079897;28;20208;-75
2023/01/13 07:34:01;;;;;;;6.88;6.38;;;;;;;4.63;74.57;95292.00;5079761;28;20207;-75
2023/01/13 07:36:29;;;;;;;8.10;7.47;;;;;;;4.67;74.21;95284.00;5079910;28;20224;-75
2023/01/13 07:39:00;;;;;;;7.22;6.63;;;;;;;4.69;74.59;95279.84;5098038;28;20193;-75
2023/01/13 07:44:17;;;;;;;5.78;5.28;;;;;;;4.71;73.81;95282.25;5097319;28;20539;-74
2023/01/13 07:46:47;;;;;;;6.45;5.95;;;;;;;4.68;73.75;95283.66;5097223;28;20216;-74
2023/01/13 07:49:15;;;;;;;5.97;5.47;;;;;;;4.72;74.13;95284.69;5097536;28;20204;-74
2023/01/13 07:51:43;;;;;;;6.82;6.15;;;;;;;4.76;73.71;95291.16;5097090;28;20193;-75
2023/01/13 07:54:13;;;;;;;6.95;6.35;;;;;;;4.74;73.74;95295.31;5062596;28;20212;-75
2023/01/13 07:56:41;;;;;;;6.47;5.97;;;;;;;4.72;73.62;95289.31;5078990;28;20240;-75
2023/01/13 07:59:09;;;;;;;6.50;5.90;;;;;;;4.71;73.82;95291.25;5079456;28;20204;-75
2023/01/13 08:01:37;;;;;;;6.32;5.85;;;;;;;4.80;73.83;95299.53;5079285;28;20208;-75
2023/01/13 08:04:05;;;;;;;7.03;6.43;;;;;;;4.83;73.38;95299.72;5079673;28;20196;-75
2023/01/13 08:06:35;;;;;;;6.07;5.60;;;;;;;4.86;73.34;95300.19;5079334;28;20249;-75
2023/01/13 08:09:03;;;;;;;6.45;5.95;;;;;;;4.88;73.25;95311.66;5097126;28;20512;-75
2023/01/13 08:11:32;;;;;;;7.47;6.88;;;;;;;4.89;73.04;95303.13;5079787;28;20192;-75
2023/01/13 08:16:47;;;;;;;6.97;6.43;;;;;;;4.90;73.26;95303.91;5079182;28;20216;-74
2023/01/13 08:19:14;;;;;;;7.07;6.57;;;;;;;4.88;72.94;95300.72;5079177;28;20617;-75
2023/01/13 08:21:42;;;;;;;6.70;6.20;;;;;;;4.90;72.94;95299.28;5079406;28;20510;-75
2023/01/13 08:24:10;;;;;;;5.43;4.97;;;;;;;4.93;73.22;95301.38;5078509;28;20205;-74
2023/01/13 08:26:40;;;;;;;6.40;5.90;;;;;;;4.98;72.88;95301.25;5078699;28;20200;-75
2023/01/13 08:29:10;;;;;;;6.20;5.47;;;;;;;5.07;72.97;95302.13;5078773;28;20608;-75
2023/01/13 08:31:38;;;;;;;6.03;5.53;;;;;;;5.14;72.65;95298.94;5079037;28;20204;-75
2023/01/13 08:34:06;;;;;;;5.05;4.65;;;;;;;5.17;72.43;95300.25;5078717;28;20189;-75
2023/01/13 08:36:34;;;;;;;5.25;4.88;;;;;;;5.23;72.29;95302.56;5078315;28;20200;-75
2023/01/13 08:39:04;;;;;;;4.85;4.50;;;;;;;5.25;71.81;95305.75;5078602;28;20686;-75
2023/01/13 08:44:19;;;;;;;10.20;9.30;;;;;;;5.34;72.00;95300.34;5078529;28;20208;-75
2023/01/13 08:46:47;;;;;;;6.70;5.90;;;;;;;5.38;71.54;95303.28;5078401;28;20200;-75
2023/01/13 08:49:15;;;;;;;5.68;5.18;;;;;;;5.44;71.40;95307.47;5078607;28;20196;-74
2023/01/13 08:51:44;;;;;;;5.35;4.95;;;;;;;5.49;71.17;95297.22;5078321;28;20201;-74
2023/01/13 08:54:11;;;;;;;4.30;4.00;;;;;;;5.53;70.70;95302.84;5078155;28;20204;-74
2023/01/13 08:56:40;;;;;;;4.45;4.15;;;;;;;5.55;70.47;95295.13;5078269;28;20236;-74
2023/01/13 08:59:09;;;;;;;4.20;3.90;;;;;;;5.62;69.79;95295.47;5078622;28;20208;-75
2023/01/13 09:01:38;;;;;;;4.30;4.00;;;;;;;5.67;70.51;95298.09;5078558;28;20204;-75
2023/01/13 09:04:07;;;;;;;3.97;3.67;;;;;;;5.71;69.64;95296.34;5078105;28;20219;-74
2023/01/13 09:06:35;;;;;;;3.97;3.67;;;;;;;5.72;69.36;95289.72;5078298;28;20196;-74
2023/01/13 09:09:03;;;;;;;3.40;3.10;;;;;;;5.76;69.38;95293.44;5078407;28;20196;-75
2023/01/13 09:14:27;;;;;;;3.58;3.38;;;;;;;5.84;69.74;95294.59;5064170;28;20184;-74
2023/01/13 09:16:56;;;;;;;4.03;3.72;;;;;;;5.89;69.14;95291.72;5078065;28;20226;-74
2023/01/13 09:19:24;;;;;;;4.88;4.38;;;;;;;5.92;68.87;95293.88;5077753;28;20196;-74
2023/01/13 09:21:52;;;;;;;4.40;4.07;;;;;;;5.91;69.13;95285.91;5077736;28;20204;-74
2023/01/13 09:24:20;;;;;;;4.85;4.30;;;;;;;6.02;69.41;95287.25;5077914;28;20193;-74
2023/01/13 09:26:48;;;;;;;3.72;3.42;;;;;;;6.06;68.70;95292.91;5077896;28;20564;-74
2023/01/13 09:29:16;;;;;;;3.50;3.17;;;;;;;6.09;68.30;95284.06;5078267;28;20215;-74
2023/01/13 09:31:44;;;;;;;3.35;3.08;;;;;;;6.08;68.68;95290.69;5077816;28;20196;-74
2023/01/13 09:37:02;;;;;;;3.15;2.85;;;;;;;5.94;68.12;95288.06;5077252;28;20220;-74
2023/01/13 09:39:30;;;;;;;3.15;2.95;;;;;;;5.96;67.71;95281.16;5077551;28;20651;-74
2023/01/13 09:44:55;;;;;;;4.00;3.70;;;;;;;5.99;68.13;95283.25;5077972;28;20259;-75
2023/01/13 09:47:27;;;;;;;4.13;3.75;;;;;;;5.99;68.06;95282.41;5077957;28;20200;-75
2023/01/13 09:50:04;;;;;;;4.07;3.78;;;;;;;5.93;68.38;95290.00;5078000;28;20215;-74
2023/01/13 09:52:34;;;;;;;3.88;3.47;;;;;;;5.96;68.18;95278.41;5077251;28;20215;-75
2023/01/13 09:55:05;;;;;;;3.03;2.83;;;;;;;5.94;67.69;95274.38;5078078;28;20196;-75
2023/01/13 09:57:35;;;;;;;3.78;3.47;;;;;;;6.06;68.35;95265.53;5077327;28;20385;-75
2023/01/13 10:00:08;;;;;;;3.88;3.60;;;;;;;6.11;68.04;95266.19;5077372;28;20239;-75
2023/01/13 10:02:55;;;;;;;4.03;3.70;;;;;;;6.16;67.93;95273.44;5070180;28;20695;-74
2023/01/13 10:05:31;;;;;;;4.35;4.05;;;;;;;6.24;67.92;95265.22;5077459;28;20215;-75
2023/01/13 10:08:04;;;;;;;4.13;3.47;;;;;;;6.25;67.79;95264.13;5077447;28;20234;-74
2023/01/13 10:10:37;;;;;;;4.13;3.72;;;;;;;6.27;67.52;95267.34;5077309;28;20762;-75
2023/01/13 10:13:15;;;;;;;4.00;3.70;;;;;;;6.33;67.33;95253.50;5077824;28;20204;-75
2023/01/13 10:15:49;;;;;;;3.50;3.20;;;;;;;6.36;67.17;95261.06;5077674;28;20290;-77
2023/01/13 10:18:22;;;;;;;4.55;3.40;;;;;;;6.29;66.99;95256.06;5076990;28;20217;-74
2023/01/13 10:20:59;;;;;;;3.75;3.45;;;;;;;6.26;66.80;95253.97;5077324;28;20277;-75
2023/01/13 10:23:37;;;;;;;3.78;3.47;;;;;;;6.26;67.26;95256.72;5077748;28;20201;-75
2023/01/13 10:26:19;;;;;;;4.47;4.07;;;;;;;6.25;67.65;95257.84;5077179;28;20206;-75
2023/01/13 10:28:51;;;;;;;4.28;3.95;;;;;;;6.24;67.28;95248.00;5077193;28;20197;-74
2023/01/13 10:31:20;;;;;;;4.30;3.90;;;;;;;6.29;67.57;95242.38;5094719;28;20193;-74
2023/01/13 10:33:49;;;;;;;3.92;3.53;;;;;;;6.31;67.20;95242.03;5077298;28;20201;-75
2023/01/13 10:36:22;;;;;;;3.65;3.35;;;;;;;6.25;67.18;95239.47;5077324;28;20232;-74
2023/01/13 10:38:53;;;;;;;3.53;3.22;;;;;;;6.20;67.17;95239.63;5076883;28;20226;-74
2023/01/13 10:41:27;;;;;;;3.78;3.47;;;;;;;6.29;67.68;95241.56;5077376;28;20495;-74
2023/01/13 10:44:01;;;;;;;5.10;3.33;;;;;;;6.36;67.55;95236.44;5077129;28;20200;-75
2023/01/13 10:46:30;;;;;;;3.45;3.25;;;;;;;6.36;67.21;95231.75;5077318;28;20204;-74
2023/01/13 10:48:59;;;;;;;3.47;3.17;;;;;;;6.39;67.41;95238.50;5081144;28;20207;-74
2023/01/13 10:51:29;;;;;;;2.85;2.65;;;;;;;6.38;66.90;95234.16;5080698;28;20226;-75
2023/01/13 10:54:00;;;;;;;2.75;2.55;;;;;;;6.37;66.72;95229.81;5080660;28;20208;-74
2023/01/13 10:56:31;;;;;;;3.15;2.85;;;;;;;6.39;66.86;95228.38;5080483;28;20243;-74
2023/01/13 10:59:17;;;;;;;3.33;2.95;;;;;;;6.39;66.89;95233.00;5080499;28;20220;-75
2023/01/13 11:01:58;;;;;;;3.50;3.20;;;;;;;6.39;67.14;95236.59;5080474;28;20216;-75
2023/01/13 11:04:31;;;;;;;3.42;3.22;;;;;;;6.38;67.00;95228.66;5080397;28;20273;-75
2023/01/13 11:07:03;;;;;;;3.55;3.25;;;;;;;6.37;66.84;95225.13;5080788;28;20200;-74
2023/01/13 11:09:32;;;;;;;3.70;3.40;;;;;;;6.39;67.12;95228.38;5080418;28;20193;-74
2023/01/13 11:12:02;;;;;;;4.32;3.58;;;;;;;6.40;67.20;95224.50;5080680;28;20228;-75
2023/01/13 11:14:38;;;;;;;6.13;5.53;;;;;;;6.38;67.23;95225.94;5080505;28;20269;-74
2023/01/13 11:17:31;;;;;;;7.45;6.85;;;;;;;6.37;67.00;95221.59;5080698;28;20291;-74
2023/01/13 11:20:07;;;;;;;4.38;4.05;;;;;;;6.32;66.80;95213.50;5080098;28;20208;-75
2023/01/13 11:22:40;;;;;;;4.80;4.35;;;;;;;6.32;67.31;95210.78;5072415;28;20204;-74
2023/01/13 11:25:12;;;;;;;4.88;4.35;;;;;;;6.29;66.90;95220.47;5079955;28;20208;-74
2023/01/13 11:27:44;;;;;;;5.30;4.90;;;;;;;6.29;67.07;95219.66;5080098;28;20215;-74
2023/01/13 11:30:21;;;;;;;5.60;4.78;;;;;;;6.29;67.83;95217.72;5080321;28;20218;-74
2023/01/13 11:33:01;;;;;;;6.97;5.13;;;;;;;6.28;67.36;95210.63;5080507;28;20200;-75
2023/01/13 11:35:30;;;;;;;6.25;5.55;;;;;;;6.26;67.58;95208.22;5080238;28;20541;-75
2023/01/13 11:38:06;;;;;;;5.75;5.10;;;;;;;6.26;67.66;95202.72;5079830;28;20724;-75
2023/01/13 11:40:37;;;;;;;5.68;5.10;;;;;;;6.27;68.00;95214.50;5079789;28;20200;-75
2023/01/13 11:43:11;;;;;;;12.82;7.82;;;;;;;6.31;67.87;95211.91;5080324;28;20215;-75
2023/01/13 11:45:41;;;;;;;8.23;5.80;;;;;;;6.31;68.02;95207.22;5072759;28;20204;-75
2023/01/13 11:48:14;;;;;;;4.70;4.30;;;;;;;6.32;67.70;95205.28;5079850;28;20204;-75
2023/01/13 11:50:49;;;;;;;5.80;4.90;;;;;;;6.33;67.85;95206.94;5079504;28;20216;-75
2023/01/13 11:53:42;;;;;;;6.32;5.82;;;;;;;6.35;67.78;95212.88;5079742;28;20619;-75
2023/01/13 11:56:36;;;;;;;6.63;5.90;;;;;;;6.33;67.79;95195.97;5079655;28;20244;-75
2023/01/13 11:59:33;;;;;;;8.88;7.40;;;;;;;6.30;67.94;95194.66;5080435;28;20213;-75
2023/01/13 12:02:12;;;;;;;5.93;4.82;;;;;;;6.27;67.81;95204.34;5073951;28;20219;-75
2023/01/13 12:04:44;;;;;;;5.47;4.97;;;;;;;6.28;68.32;95202.38;5079690;28;20205;-75
2023/01/13 12:07:18;;;;;;;5.82;5.32;;;;;;;6.34;68.66;95195.63;5080807;28;20196;-75
2023/01/13 12:09:56;;;;;;;4.75;4.35;;;;;;;6.42;68.06;95191.28;5080518;28;20211;-74
2023/01/13 12:12:34;;;;;;;3.80;3.50;;;;;;;6.43;67.75;95187.44;5079617;28;20199;-74
2023/01/13 12:15:31;;;;;;;3.95;3.65;;;;;;;6.44;68.11;95195.31;5080647;28;20203;-75
2023/01/13 12:18:23;;;;;;;4.05;3.75;;;;;;;6.46;67.33;95186.75;5076653;28;20220;-74
2023/01/13 12:21:02;;;;;;;4.25;3.85;;;;;;;6.52;67.65;95185.47;5097939;28;20197;-75
2023/01/13 12:23:35;;;;;;;3.90;3.47;;;;;;;6.52;67.54;95180.00;5098067;28;20273;-75
2023/01/13 12:26:10;;;;;;;3.50;3.20;;;;;;;6.54;67.44;95177.75;5079808;28;20204;-74
2023/01/13 12:28:45;;;;;;;3.88;3.58;;;;;;;6.57;67.28;95184.50;5079700;28;20196;-74
2023/01/13 12:31:13;;;;;;;3.88;3.58;;;;;;;6.59;67.02;95183.03;5080328;28;20213;-75
2023/01/13 12:33:56;;;;;;;6.18;5.57;;;;;;;6.64;66.92;95184.81;5080027;28;20219;-75
2023/01/13 12:36:29;;;;;;;6.00;5.47;;;;;;;6.59;66.28;95190.47;5080083;28;20200;-75
2023/01/13 12:38:58;;;;;;;4.65;4.25;;;;;;;6.62;66.70;95184.34;5080047;28;20212;-74
2023/01/13 12:44:15;;;;;;;4.18;3.88;;;;;;;6.62;66.75;95181.59;5079420;28;20200;-74
2023/01/13 12:44:28;;;;;;;4.63;4.25;;;;;;;6.68;67.18;95189.34;5079304;28;20292;-75
2023/01/13 12:46:56;;;;;;;4.22;3.92;;;;;;;6.67;66.27;95186.91;5079716;28;20200;-74
2023/01/13 12:49:27;;;;;;;4.50;4.10;;;;;;;6.68;66.73;95189.34;5097834;28;20212;-74
2023/01/13 12:52:11;;;;;;;4.80;3.70;;;;;;;6.73;66.83;95189.16;5079818;28;20208;-74